Time;durP1;ratioP1;P1;durP2;ratioP2;P2;SDS_P1;SDS_P2;PMS_P1;PMS_P2;Temp;Humidity;BMP_temperature;BMP_pressure;BME280_temperature;BME280_humidity;BME280_pressure;Samples;Min_cycle;Max_cycle;Signal;HPM_P1;HPM_P2
2021/05/18 00:00:25;;;;;;;7.20;6.70;;;10.50;99.90;;;;;;5061758;28;20222;-76
2021/05/18 00:02:52;;;;;;;6.57;6.10;;;10.50;99.90;;;;;;5045575;28;20207;-76
2021/05/18 00:05:22;;;;;;;6.23;5.93;;;10.50;99.90;;;;;;5045100;28;20199;-76
2021/05/18 00:07:54;;;;;;;6.40;6.10;;;10.50;99.90;;;;;;5062506;28;20773;-76
2021/05/18 00:13:07;;;;;;;6.20;5.80;;;10.40;99.90;;;;;;5065798;28;20211;-76
2021/05/18 00:15:34;;;;;;;6.70;6.30;;;10.30;99.90;;;;;;5062568;28;20202;-76
2021/05/18 00:18:01;;;;;;;6.40;6.10;;;10.30;99.90;;;;;;5041694;28;20203;-77
2021/05/18 00:20:28;;;;;;;6.87;6.47;;;10.20;99.90;;;;;;5047866;28;20218;-76
2021/05/18 00:22:54;;;;;;;6.60;6.20;;;10.30;99.90;;;;;;5061231;28;20237;-76
2021/05/18 00:25:21;;;;;;;6.40;6.10;;;10.30;99.90;;;;;;5063577;28;20611;-76
2021/05/18 00:27:48;;;;;;;7.00;6.60;;;10.30;99.90;;;;;;5062835;28;20187;-76
2021/05/18 00:30:16;;;;;;;7.20;6.70;;;10.20;99.90;;;;;;5064398;28;20246;-76
2021/05/18 00:32:42;;;;;;;6.40;6.10;;;10.20;99.90;;;;;;5045396;28;20328;-76
2021/05/18 00:35:11;;;;;;;6.67;6.27;;;10.20;99.90;;;;;;5058446;28;20195;-76
2021/05/18 00:37:38;;;;;;;6.27;5.97;;;10.20;99.90;;;;;;5059243;28;20199;-76
2021/05/18 00:40:09;;;;;;;6.90;6.40;;;10.20;99.90;;;;;;5065005;28;20219;-76
2021/05/18 00:42:49;;;;;;;6.63;6.13;;;10.10;99.90;;;;;;5044457;28;20257;-76
2021/05/18 00:45:16;;;;;;;6.83;6.43;;;10.10;99.90;;;;;;5050866;28;20200;-76
2021/05/18 00:47:43;;;;;;;6.50;6.20;;;10.10;99.90;;;;;;5044197;28;20629;-76
2021/05/18 00:50:11;;;;;;;6.80;6.37;;;10.10;99.90;;;;;;5046204;28;20229;-75
2021/05/18 00:52:38;;;;;;;6.50;6.20;;;10.10;99.90;;;;;;5062994;28;20202;-76
2021/05/18 00:55:16;;;;;;;6.60;6.30;;;10.10;99.90;;;;;;5040862;28;20195;-76
2021/05/18 01:00:28;;;;;;;6.57;6.20;;;10.10;99.90;;;;;;5038976;28;20241;-76
2021/05/18 01:02:54;;;;;;;6.80;6.50;;;10.10;99.90;;;;;;5059405;28;20191;-76
2021/05/18 01:06:18;;;;;;;6.70;6.30;;;10.10;99.90;;;;;;5062482;28;20203;-76
2021/05/18 01:08:07;;;;;;;7.07;6.57;;;10.10;99.90;;;;;;5062665;28;20187;-76
2021/05/18 01:10:33;;;;;;;7.00;6.60;;;10.10;99.90;;;;;;5061455;28;20675;-76
2021/05/18 01:13:01;;;;;;;6.60;6.20;;;10.10;99.90;;;;;;5045618;28;20230;-76
2021/05/18 01:15:27;;;;;;;7.00;6.60;;;10.20;99.90;;;;;;5063167;28;20199;-76
2021/05/18 01:17:53;;;;;;;6.60;6.30;;;10.20;99.90;;;;;;5064571;28;20195;-76
2021/05/18 01:20:21;;;;;;;6.73;6.33;;;10.20;99.90;;;;;;5042889;28;20210;-76
2021/05/18 01:22:49;;;;;;;6.37;6.07;;;10.20;99.90;;;;;;5039986;28;20203;-76
2021/05/18 01:25:17;;;;;;;6.63;6.23;;;10.20;99.90;;;;;;5064898;28;20195;-76
2021/05/18 01:27:44;;;;;;;6.50;6.10;;;10.20;99.90;;;;;;5042589;28;20730;-77
2021/05/18 01:30:12;;;;;;;6.93;6.53;;;10.20;99.90;;;;;;5035034;28;20234;-76
2021/05/18 01:32:43;;;;;;;7.07;6.67;;;10.20;99.90;;;;;;5043338;28;20290;-76
2021/05/18 01:35:12;;;;;;;7.00;6.60;;;10.20;99.90;;;;;;5043247;28;20286;-76
2021/05/18 01:37:40;;;;;;;7.00;6.60;;;10.30;99.90;;;;;;5061451;28;20190;-76
2021/05/18 01:40:27;;;;;;;7.10;6.60;;;10.30;99.90;;;;;;5038386;28;20218;-76
2021/05/18 01:42:55;;;;;;;6.90;6.60;;;10.40;99.90;;;;;;5045354;28;20202;-76
2021/05/18 01:45:25;;;;;;;7.00;6.60;;;10.40;99.90;;;;;;5039967;28;20618;-76
2021/05/18 01:47:56;;;;;;;6.90;6.60;;;10.30;99.90;;;;;;5058561;28;20199;-76
2021/05/18 01:50:37;;;;;;;6.90;6.50;;;10.40;99.90;;;;;;5041994;28;20199;-76
2021/05/18 01:53:04;;;;;;;6.90;6.50;;;10.30;99.90;;;;;;5045025;28;20222;-76
2021/05/18 01:55:35;;;;;;;7.20;6.70;;;10.40;99.90;;;;;;5043184;28;20230;-76
2021/05/18 01:58:01;;;;;;;7.20;6.70;;;10.40;99.90;;;;;;5043539;28;20220;-76
2021/05/18 02:00:46;;;;;;;7.10;6.70;;;10.30;99.90;;;;;;5043079;28;20248;-76
2021/05/18 02:03:23;;;;;;;7.20;6.80;;;10.30;99.90;;;;;;5043506;28;20576;-76
2021/05/18 02:05:50;;;;;;;7.20;6.80;;;10.30;99.90;;;;;;5040720;28;20227;-74
2021/05/18 02:08:34;;;;;;;7.43;7.03;;;10.30;99.90;;;;;;5059313;28;20726;-76
2021/05/18 02:11:04;;;;;;;7.10;6.70;;;10.30;99.90;;;;;;5042936;28;20195;-76
2021/05/18 02:13:32;;;;;;;7.33;6.93;;;10.30;99.90;;;;;;5042429;28;20301;-76
2021/05/18 02:16:09;;;;;;;7.20;6.80;;;10.30;99.90;;;;;;5045355;28;20584;-76
2021/05/18 02:19:08;;;;;;;7.37;6.97;;;10.20;99.90;;;;;;5047186;28;20222;-77
2021/05/18 02:27:31;;;;;;;7.07;6.67;;;10.20;99.90;;;;;;5041696;28;20663;-74
2021/05/18 02:29:59;;;;;;;7.17;6.77;;;10.10;99.90;;;;;;5089511;22;20610;-78
2021/05/18 02:32:28;;;;;;;7.47;7.07;;;10.10;99.90;;;;;;5052835;28;20235;-78
2021/05/18 02:35:18;;;;;;;7.33;6.93;;;10.10;99.90;;;;;;5031209;28;20202;-78
2021/05/18 02:37:46;;;;;;;7.50;7.10;;;10.10;99.90;;;;;;5040949;28;20195;-77
2021/05/18 02:40:17;;;;;;;8.30;7.80;;;10.10;99.90;;;;;;5043185;28;20301;-78
2021/05/18 02:42:46;;;;;;;7.43;7.03;;;10.10;99.90;;;;;;5036217;28;20244;-75
2021/05/18 02:45:18;;;;;;;7.90;7.47;;;10.00;99.90;;;;;;5031018;28;20191;-77
2021/05/18 02:50:30;;;;;;;7.77;7.17;;;10.00;99.90;;;;;;5055259;28;20245;-76
2021/05/18 02:52:57;;;;;;;8.43;7.93;;;10.00;99.90;;;;;;5059322;28;20195;-75
2021/05/18 02:55:33;;;;;;;8.70;8.00;;;10.00;99.90;;;;;;5037050;28;20195;-74
2021/05/18 02:58:01;;;;;;;7.87;7.03;;;10.00;99.90;;;;;;5022246;28;20300;-75
2021/05/18 03:00:27;;;;;;;8.57;8.07;;;10.00;99.90;;;;;;5063856;28;20217;-77
2021/05/18 03:02:53;;;;;;;8.10;7.60;;;10.00;99.90;;;;;;5063145;28;20205;-75
2021/05/18 03:05:25;;;;;;;7.80;7.40;;;10.00;99.90;;;;;;5045945;28;20208;-74
2021/05/18 03:07:53;;;;;;;7.93;7.53;;;10.00;99.90;;;;;;5062043;28;20201;-75
2021/05/18 03:10:20;;;;;;;8.03;7.63;;;10.00;99.90;;;;;;5063724;28;20214;-75
2021/05/18 03:12:47;;;;;;;8.00;7.60;;;10.00;99.90;;;;;;5043500;28;20575;-75
2021/05/18 03:15:15;;;;;;;8.27;7.83;;;10.00;99.90;;;;;;5060328;28;20310;-75
2021/05/18 03:17:42;;;;;;;7.90;7.40;;;10.00;99.90;;;;;;5040307;28;20285;-75
2021/05/18 03:20:10;;;;;;;7.90;7.40;;;9.90;99.90;;;;;;5043129;28;20214;-75
2021/05/18 03:22:38;;;;;;;7.90;7.50;;;9.90;99.90;;;;;;5049234;28;20192;-75
2021/05/18 03:25:05;;;;;;;8.50;8.00;;;9.90;99.90;;;;;;5066637;28;20190;-75
2021/05/18 03:27:31;;;;;;;8.33;7.83;;;9.90;99.90;;;;;;5064504;28;20206;-74
2021/05/18 03:30:00;;;;;;;8.43;8.03;;;9.90;99.90;;;;;;5060898;28;20241;-74
2021/05/18 03:35:13;;;;;;;9.73;9.20;;;9.90;99.90;;;;;;5056929;28;20207;-75
2021/05/18 03:37:49;;;;;;;9.70;9.10;;;9.90;99.90;;;;;;5063803;28;20199;-75
2021/05/18 03:40:17;;;;;;;9.30;8.70;;;10.00;99.90;;;;;;5052314;28;20292;-75
2021/05/18 03:42:46;;;;;;;9.70;9.03;;;9.90;99.90;;;;;;5057117;28;20664;-75
2021/05/18 03:45:17;;;;;;;9.73;9.13;;;9.90;99.90;;;;;;5048413;28;20195;-75
2021/05/18 03:53:34;;;;;;;9.17;8.60;;;9.90;99.90;;;;;;5063155;28;20198;-75
2021/05/18 03:59:00;;;;;;;9.43;8.83;;;9.90;99.90;;;;;;5055670;28;20198;-75
2021/05/18 04:04:16;;;;;;;9.60;9.00;;;9.90;99.90;;;;;;5063818;28;20244;-75
2021/05/18 04:12:30;;;;;;;9.40;8.90;;;10.00;99.90;;;;;;5055398;28;20183;-75
2021/05/18 04:17:50;;;;;;;9.50;8.90;;;10.00;99.90;;;;;;5054443;28;20233;-75
2021/05/18 04:20:28;;;;;;;9.73;9.23;;;10.10;99.90;;;;;;5055444;28;20328;-75
2021/05/18 04:23:11;;;;;;;9.87;9.27;;;10.10;99.90;;;;;;5058154;28;20240;-75
2021/05/18 04:26:08;;;;;;;9.20;8.70;;;10.20;99.90;;;;;;5058370;28;20227;-76
2021/05/18 04:42:56;;;;;;;9.57;9.07;;;10.30;99.90;;;;;;5052123;28;20199;-75
2021/05/18 04:50:58;;;;;;;8.63;8.13;;;10.40;99.90;;;;;;5061830;28;20258;-76
2021/05/18 04:53:34;;;;;;;8.40;7.90;;;10.50;99.90;;;;;;5059697;28;20206;-75
2021/05/18 04:59:05;;;;;;;9.10;8.60;;;10.50;99.90;;;;;;5050858;28;20221;-75
2021/05/18 05:01:41;;;;;;;9.50;9.00;;;10.60;99.90;;;;;;5062785;28;20248;-75
2021/05/18 05:04:16;;;;;;;10.37;9.63;;;10.60;99.90;;;;;;5061485;28;20186;-75
2021/05/18 05:06:49;;;;;;;10.20;9.60;;;10.60;99.90;;;;;;5053894;28;20289;-76
2021/05/18 05:09:22;;;;;;;10.40;9.80;;;10.60;99.90;;;;;;5055999;28;20245;-76
2021/05/18 05:14:35;;;;;;;10.37;9.77;;;10.60;99.90;;;;;;5055696;28;20333;-75
2021/05/18 05:17:01;;;;;;;10.43;9.83;;;10.60;99.90;;;;;;5062774;28;20199;-75
2021/05/18 05:19:29;;;;;;;10.93;10.33;;;10.50;99.90;;;;;;5064712;28;20226;-75
2021/05/18 05:21:55;;;;;;;10.90;10.30;;;10.50;99.90;;;;;;5055198;28;20611;-75
2021/05/18 05:24:23;;;;;;;10.80;10.20;;;10.60;99.90;;;;;;5070725;28;20524;-75
2021/05/18 05:26:50;;;;;;;10.27;9.77;;;10.60;99.90;;;;;;5062843;28;20210;-75
2021/05/18 05:29:17;;;;;;;10.97;10.37;;;10.60;99.90;;;;;;5064042;28;20598;-75
2021/05/18 05:31:44;;;;;;;10.77;10.17;;;10.60;99.90;;;;;;5066081;28;20195;-75
2021/05/18 05:34:11;;;;;;;10.83;10.13;;;10.60;99.90;;;;;;5038546;28;20210;-75
2021/05/18 05:36:38;;;;;;;10.80;10.20;;;10.60;99.90;;;;;;5066091;28;20209;-75
2021/05/18 05:39:08;;;;;;;10.90;10.30;;;10.70;99.90;;;;;;5044527;28;20726;-75
2021/05/18 05:41:36;;;;;;;10.70;10.10;;;10.70;99.90;;;;;;5067241;28;20187;-75
2021/05/18 05:44:04;;;;;;;11.60;10.90;;;10.60;99.90;;;;;;5066486;28;20213;-75
2021/05/18 05:46:30;;;;;;;10.57;9.97;;;10.60;99.90;;;;;;5067990;28;20210;-75
2021/05/18 05:48:57;;;;;;;10.50;9.87;;;10.60;99.90;;;;;;5045791;28;20233;-75
2021/05/18 05:51:25;;;;;;;10.50;9.90;;;10.60;99.90;;;;;;5049145;28;20206;-75
2021/05/18 05:53:53;;;;;;;10.43;9.83;;;10.70;99.90;;;;;;5043522;28;20210;-75
2021/05/18 05:56:19;;;;;;;9.40;8.90;;;10.70;99.90;;;;;;5062063;28;20193;-75
2021/05/18 05:58:47;;;;;;;9.50;8.90;;;10.70;99.90;;;;;;5048224;28;20286;-75
2021/05/18 06:01:14;;;;;;;9.40;8.80;;;10.60;99.90;;;;;;5061778;28;20210;-75
2021/05/18 06:03:41;;;;;;;9.20;8.60;;;10.70;99.90;;;;;;5049322;28;20224;-75
2021/05/18 06:06:07;;;;;;;9.10;8.60;;;10.50;99.90;;;;;;5061586;28;20199;-75
2021/05/18 06:08:37;;;;;;;8.80;8.30;;;10.50;99.90;;;;;;5049242;28;20199;-75
2021/05/18 06:11:07;;;;;;;8.87;8.37;;;10.60;99.90;;;;;;5044810;28;20569;-75
2021/05/18 06:45:44;;;;;;;5.07;4.73;;;11.30;99.90;;;;;;5045277;28;20199;-77
2021/05/18 06:46:52;;;;;;;7.00;6.60;;;11.30;99.90;;;;;;5060353;28;20206;-77
2021/05/18 06:49:19;;;;;;;7.73;7.33;;;11.30;99.90;;;;;;5041788;28;20276;-84
2021/05/18 06:51:45;;;;;;;8.10;7.70;;;11.30;99.90;;;;;;5045915;28;20230;-77
2021/05/18 06:54:12;;;;;;;8.77;8.27;;;11.30;99.90;;;;;;5046548;28;20727;-77
2021/05/18 06:56:39;;;;;;;8.70;8.20;;;11.30;99.90;;;;;;5056921;28;20676;-77
2021/05/18 07:01:52;;;;;;;8.50;8.00;;;11.40;99.90;;;;;;5057530;28;20277;-77
2021/05/18 07:04:19;;;;;;;7.47;7.07;;;11.50;99.90;;;;;;5056671;28;20195;-77
2021/05/18 07:06:50;;;;;;;7.47;7.07;;;11.60;99.90;;;;;;5062914;28;20302;-77
2021/05/18 07:09:16;;;;;;;7.63;7.13;;;11.70;99.90;;;;;;5063807;28;20212;-77
2021/05/18 07:11:42;;;;;;;8.07;7.67;;;11.80;99.90;;;;;;5060540;28;20203;-77
2021/05/18 07:14:09;;;;;;;8.30;7.80;;;11.80;99.90;;;;;;5059451;28;20268;-76
2021/05/18 07:16:36;;;;;;;7.43;7.00;;;11.70;99.90;;;;;;5062049;28;20203;-77
2021/05/18 07:19:02;;;;;;;3.40;3.20;;;11.80;99.90;;;;;;5060618;28;20226;-77
2021/05/18 07:21:30;;;;;;;3.90;3.70;;;11.90;99.90;;;;;;5081270;28;20682;-77
2021/05/18 07:23:56;;;;;;;3.60;3.40;;;11.80;99.90;;;;;;5057443;28;20188;-77
2021/05/18 07:26:23;;;;;;;3.40;3.20;;;11.80;99.90;;;;;;5059751;28;20199;-77
2021/05/18 07:28:49;;;;;;;3.00;2.80;;;11.90;99.90;;;;;;5062895;28;20215;-77
2021/05/18 07:31:16;;;;;;;3.60;3.40;;;11.90;99.90;;;;;;5061379;28;20197;-77
2021/05/18 07:33:42;;;;;;;3.30;3.10;;;11.90;99.90;;;;;;5066364;28;20239;-77
2021/05/18 07:36:09;;;;;;;3.53;3.33;;;11.80;99.90;;;;;;5059732;28;20200;-77
2021/05/18 07:38:38;;;;;;;3.30;3.20;;;11.70;99.90;;;;;;5066033;28;20707;-77
2021/05/18 07:41:05;;;;;;;3.73;3.53;;;11.60;99.90;;;;;;5042744;28;20292;-77
2021/05/18 07:43:31;;;;;;;3.93;3.63;;;11.60;99.90;;;;;;5036984;28;20268;-76
2021/05/18 07:45:59;;;;;;;3.73;3.50;;;11.70;99.90;;;;;;5066650;28;20202;-77
2021/05/18 07:48:30;;;;;;;3.40;3.20;;;11.80;99.90;;;;;;5058476;28;20194;-75
2021/05/18 07:51:06;;;;;;;3.80;3.50;;;11.90;99.90;;;;;;5040839;28;20220;-77
2021/05/18 07:59:24;;;;;;;3.63;3.43;;;11.70;99.90;;;;;;5054395;28;20298;-77
2021/05/18 08:07:21;;;;;;;8.03;7.53;;;12.10;99.90;;;;;;5022591;28;20284;-77
2021/05/18 08:09:51;;;;;;;8.50;8.00;;;12.50;99.90;;;;;;5054991;28;20235;-77
2021/05/18 08:12:18;;;;;;;8.40;7.90;;;12.70;99.90;;;;;;5040979;28;20564;-77
2021/05/18 08:14:48;;;;;;;7.40;7.00;;;13.00;99.90;;;;;;5057705;28;20240;-77
2021/05/18 08:17:21;;;;;;;8.17;7.67;;;13.30;99.90;;;;;;5059314;28;20589;-77
2021/05/18 10:36:33;;;;;;;7.20;6.60;;;16.20;99.90;;;;;;5057459;28;20203;-77
2021/05/18 10:39:19;;;;;;;7.10;6.70;;;16.50;99.90;;;;;;5074621;28;20201;-78
2021/05/18 10:41:47;;;;;;;7.80;7.30;;;16.70;99.90;;;;;;5072415;28;20300;-77
2021/05/18 10:44:13;;;;;;;7.60;7.10;;;16.80;99.90;;;;;;5083084;28;20195;-77
2021/05/18 10:46:51;;;;;;;6.90;6.50;;;17.10;99.90;;;;;;5058651;28;20190;-77
2021/05/18 10:49:36;;;;;;;7.20;6.70;;;17.00;99.90;;;;;;5068580;28;20199;-77
2021/05/18 10:52:04;;;;;;;7.33;6.93;;;17.10;99.90;;;;;;5076628;28;20217;-78
2021/05/18 10:54:35;;;;;;;7.00;6.50;;;17.30;99.90;;;;;;5076252;28;20225;-77
2021/05/18 10:57:07;;;;;;;6.80;6.40;;;17.50;99.90;;;;;;5075876;28;20200;-77
2021/05/18 10:59:36;;;;;;;6.90;6.50;;;17.60;99.90;;;;;;5074941;28;20729;-78
2021/05/18 11:02:05;;;;;;;6.60;6.20;;;17.40;99.90;;;;;;5079316;28;20193;-78
2021/05/18 11:04:33;;;;;;;6.37;6.00;;;17.60;99.90;;;;;;5073825;28;20196;-78
2021/05/18 11:07:01;;;;;;;6.50;6.10;;;17.90;99.90;;;;;;5074726;28;20208;-77
2021/05/18 11:09:28;;;;;;;6.50;6.10;;;18.30;99.90;;;;;;5081214;28;20221;-77
2021/05/18 11:12:00;;;;;;;6.30;5.80;;;18.70;99.90;;;;;;5062073;28;20221;-77
2021/05/18 11:14:39;;;;;;;6.23;5.67;;;19.10;99.90;;;;;;5076017;28;20214;-78
2021/05/18 11:17:10;;;;;;;6.20;5.90;;;19.10;99.90;;;;;;5075325;28;20247;-77
2021/05/18 11:19:51;;;;;;;6.60;6.20;;;18.90;99.90;;;;;;5075701;28;20222;-77
2021/05/18 11:23:18;;;;;;;6.20;5.90;;;18.80;99.90;;;;;;5068667;28;20718;-78
2021/05/18 11:25:05;;;;;;;7.03;6.40;;;18.60;99.90;;;;;;5074469;28;20709;-77
2021/05/18 11:27:32;;;;;;;6.47;5.80;;;18.40;99.90;;;;;;5079003;28;20303;-77
2021/05/18 11:29:59;;;;;;;6.80;6.23;;;18.20;99.90;;;;;;5068095;28;20225;-76
2021/05/18 11:32:25;;;;;;;6.60;6.20;;;18.00;99.90;;;;;;5078278;28;20195;-78
2021/05/18 11:34:58;;;;;;;6.83;6.43;;;17.80;99.90;;;;;;5077503;28;20217;-77
2021/05/18 11:37:26;;;;;;;6.97;6.60;;;17.90;99.90;;;;;;5078948;28;20656;-78
2021/05/18 11:40:08;;;;;;;6.83;6.50;;;17.50;99.90;;;;;;5077610;28;20278;-77
2021/05/18 11:42:34;;;;;;;7.10;6.70;;;17.30;99.90;;;;;;5067151;28;20545;-76
2021/05/18 11:45:08;;;;;;;7.40;6.97;;;17.30;99.90;;;;;;5073521;28;20195;-77
2021/05/18 11:47:34;;;;;;;8.37;7.60;;;17.30;99.90;;;;;;5070465;28;20208;-77
2021/05/18 11:50:01;;;;;;;7.97;7.47;;;17.30;99.90;;;;;;5073927;28;20243;-77
2021/05/18 11:52:35;;;;;;;8.20;7.70;;;17.50;99.90;;;;;;5075278;28;20199;-77
2021/05/18 11:55:01;;;;;;;8.13;7.60;;;17.70;99.90;;;;;;5075576;28;20218;-77
2021/05/18 11:57:27;;;;;;;7.80;7.40;;;17.60;99.90;;;;;;5075243;28;20196;-77
2021/05/18 11:59:54;;;;;;;6.70;6.40;;;17.10;99.90;;;;;;5079560;28;20216;-78
2021/05/18 12:02:21;;;;;;;6.80;6.40;;;16.80;99.90;;;;;;5073803;28;20196;-77
2021/05/18 12:04:50;;;;;;;6.13;5.67;;;17.00;99.90;;;;;;5074974;28;20196;-77
2021/05/18 12:07:16;;;;;;;6.17;5.70;;;16.90;99.90;;;;;;5074851;28;20197;-77
2021/05/18 12:09:44;;;;;;;5.73;5.33;;;17.00;99.90;;;;;;5074257;28;20619;-77
2021/05/18 12:12:14;;;;;;;5.70;5.40;;;16.80;99.90;;;;;;5073415;28;20198;-77
2021/05/18 12:14:45;;;;;;;5.83;5.40;;;16.60;99.90;;;;;;5076794;28;20683;-77
2021/05/18 12:17:11;;;;;;;6.20;5.90;;;16.30;99.90;;;;;;5078585;28;20191;-77
2021/05/18 12:19:39;;;;;;;6.00;5.70;;;16.30;99.90;;;;;;5074043;28;20302;-77
2021/05/18 12:22:06;;;;;;;5.90;5.50;;;16.30;99.90;;;;;;5082507;28;20547;-77
2021/05/18 12:24:39;;;;;;;6.40;6.10;;;16.40;99.90;;;;;;5075212;28;20655;-77
2021/05/18 12:27:06;;;;;;;6.00;5.70;;;16.50;99.90;;;;;;5073728;28;20198;-76
2021/05/18 12:29:35;;;;;;;6.27;5.87;;;16.70;99.90;;;;;;5074554;28;20241;-76
2021/05/18 12:32:18;;;;;;;7.67;6.50;;;16.60;99.90;;;;;;5083364;28;20200;-76
2021/05/18 12:34:46;;;;;;;10.53;7.00;;;16.60;99.90;;;;;;5053385;28;20225;-77
2021/05/18 12:37:13;;;;;;;19.27;8.67;;;16.60;99.90;;;;;;5075009;28;20191;-76
2021/05/18 12:39:42;;;;;;;12.63;7.20;;;16.50;99.90;;;;;;5056998;28;20228;-76
2021/05/18 12:42:11;;;;;;;5.97;5.60;;;16.20;99.90;;;;;;5082887;28;20713;-77
2021/05/18 12:44:51;;;;;;;5.10;4.80;;;15.60;99.90;;;;;;5073525;28;20212;-77
2021/05/18 12:47:26;;;;;;;4.73;4.53;;;15.50;99.90;;;;;;5072383;28;20196;-76
2021/05/18 12:49:53;;;;;;;5.60;5.30;;;15.40;99.90;;;;;;5077244;28;20604;-77
2021/05/18 12:52:20;;;;;;;5.80;5.50;;;15.60;99.90;;;;;;5074509;28;20191;-76
2021/05/18 12:54:52;;;;;;;6.10;5.70;;;15.80;99.90;;;;;;5073545;28;20213;-77
2021/05/18 12:57:20;;;;;;;6.37;5.97;;;15.80;99.90;;;;;;5074578;28;20205;-76
2021/05/18 13:00:00;;;;;;;6.50;6.10;;;16.20;99.90;;;;;;5074037;28;20561;-77
2021/05/18 13:02:31;;;;;;;6.33;5.97;;;16.60;99.90;;;;;;5056929;28;20227;-76
2021/05/18 13:05:08;;;;;;;7.07;6.57;;;17.10;99.90;;;;;;5056151;28;20201;-77
2021/05/18 13:07:35;;;;;;;6.53;6.23;;;17.40;99.90;;;;;;5056461;28;20200;-77
2021/05/18 13:10:10;;;;;;;6.80;6.40;;;17.60;99.90;;;;;;5080082;28;20221;-77
2021/05/18 13:12:36;;;;;;;6.90;6.50;;;17.80;99.90;;;;;;5074206;28;20210;-77
2021/05/18 13:15:06;;;;;;;5.00;4.60;;;17.90;99.90;;;;;;5060982;28;20234;-79
2021/05/18 13:17:33;;;;;;;5.00;4.47;;;17.90;99.90;;;;;;5081707;28;20198;-78
2021/05/18 13:20:03;;;;;;;5.10;4.80;;;17.80;99.90;;;;;;5062844;28;20222;-78
2021/05/18 13:22:32;;;;;;;4.80;4.60;;;17.90;99.90;;;;;;5063066;28;20702;-79
2021/05/18 13:27:54;;;;;;;5.47;5.17;;;18.20;99.90;;;;;;5062259;28;20194;-80
2021/05/18 13:30:22;;;;;;;5.60;5.10;;;18.20;99.90;;;;;;5072622;28;20218;-78
2021/05/18 13:32:49;;;;;;;5.17;4.90;;;18.10;99.90;;;;;;5077233;28;20198;-78
2021/05/18 13:35:16;;;;;;;5.70;5.40;;;17.90;99.90;;;;;;5062537;28;20222;-78
2021/05/18 13:37:44;;;;;;;5.30;5.10;;;17.80;99.90;;;;;;5081097;28;20200;-77
2021/05/18 13:40:11;;;;;;;5.80;5.50;;;17.80;99.90;;;;;;5076661;28;20225;-77
2021/05/18 13:42:37;;;;;;;9.03;6.53;;;17.80;99.90;;;;;;5060386;28;20224;-77
2021/05/18 13:45:05;;;;;;;9.93;6.80;;;17.60;99.90;;;;;;5058348;28;20206;-78
2021/05/18 13:47:31;;;;;;;5.93;5.60;;;17.60;99.90;;;;;;5070941;28;20194;-77
2021/05/18 13:49:57;;;;;;;5.53;5.23;;;17.60;99.90;;;;;;5078001;28;20272;-77
2021/05/18 13:52:24;;;;;;;5.27;4.97;;;17.60;99.90;;;;;;5061298;28;20664;-78
2021/05/18 13:54:51;;;;;;;6.47;5.90;;;17.90;99.90;;;;;;5072927;28;20224;-77
2021/05/18 13:57:18;;;;;;;5.00;4.77;;;17.90;99.90;;;;;;5043676;28;20265;-78
2021/05/18 13:59:44;;;;;;;5.30;5.00;;;18.10;99.90;;;;;;5076053;28;20599;-77
2021/05/18 14:02:10;;;;;;;5.53;5.20;;;18.10;99.90;;;;;;5072205;28;20206;-78
2021/05/18 14:04:37;;;;;;;5.37;5.00;;;18.20;99.90;;;;;;5072505;28;20259;-85
2021/05/18 14:07:41;;;;;;;5.30;5.00;;;18.10;99.90;;;;;;5047638;28;20202;-79
2021/05/18 14:10:13;;;;;;;5.00;4.80;;;18.00;99.90;;;;;;5055193;28;20218;-79
2021/05/18 14:12:40;;;;;;;5.10;4.80;;;17.80;99.90;;;;;;5058233;28;20202;-78
2021/05/18 14:15:07;;;;;;;5.80;5.40;;;18.00;99.90;;;;;;5072781;28;20280;-78
2021/05/18 14:17:34;;;;;;;5.30;5.00;;;18.10;99.90;;;;;;5078474;28;20264;-78
2021/05/18 14:20:00;;;;;;;5.47;5.17;;;18.00;99.90;;;;;;5059490;28;20236;-77
2021/05/18 14:22:27;;;;;;;5.40;5.10;;;17.90;99.90;;;;;;5079658;28;20202;-78
2021/05/18 14:24:57;;;;;;;5.50;5.20;;;17.80;99.90;;;;;;5061644;28;20190;-77
2021/05/18 14:27:24;;;;;;;5.40;5.10;;;17.90;99.90;;;;;;5070105;28;20777;-77
2021/05/18 14:29:52;;;;;;;5.70;5.40;;;17.80;99.90;;;;;;5080790;22;20234;-79
2021/05/18 14:32:19;;;;;;;5.70;5.40;;;17.70;99.90;;;;;;5029893;28;20195;-80
2021/05/18 14:34:45;;;;;;;9.63;6.63;;;17.30;99.90;;;;;;5042160;28;20245;-80
2021/05/18 14:37:12;;;;;;;6.10;5.80;;;16.80;99.90;;;;;;5028649;28;20202;-79
2021/05/18 14:39:51;;;;;;;6.67;6.20;;;16.70;99.90;;;;;;5021427;28;20435;-81
2021/05/18 14:45:03;;;;;;;7.10;6.70;;;16.50;99.90;;;;;;5033385;28;20189;-79
2021/05/18 14:47:33;;;;;;;6.57;6.10;;;16.40;99.90;;;;;;5047784;28;20215;-78
2021/05/18 14:55:29;;;;;;;6.10;5.80;;;16.00;99.90;;;;;;5029211;28;20698;-79
2021/05/18 14:57:55;;;;;;;6.43;6.03;;;16.00;99.90;;;;;;5022145;28;20283;-79
2021/05/18 15:00:23;;;;;;;6.90;6.50;;;15.90;99.90;;;;;;5035977;28;20262;-78
2021/05/18 15:02:49;;;;;;;5.37;5.07;;;15.90;99.90;;;;;;5036526;28;20200;-79
2021/05/18 15:05:16;;;;;;;5.60;5.30;;;15.90;99.90;;;;;;5034420;28;20205;-77
2021/05/18 15:07:43;;;;;;;6.00;5.70;;;15.70;99.90;;;;;;5028407;28;20194;-77
2021/05/18 15:10:11;;;;;;;5.83;5.53;;;15.70;99.90;;;;;;5025372;28;20232;-77
2021/05/18 15:12:38;;;;;;;6.07;5.77;;;15.80;99.90;;;;;;5031910;28;20228;-77
2021/05/18 15:15:05;;;;;;;6.40;6.00;;;16.00;99.90;;;;;;5017457;28;20267;-77
2021/05/18 15:17:33;;;;;;;6.40;6.00;;;16.00;99.90;;;;;;5033493;28;20198;-77
2021/05/18 15:19:59;;;;;;;5.67;5.37;;;16.10;99.90;;;;;;5031878;28;20568;-77
2021/05/18 15:22:27;;;;;;;4.90;4.70;;;16.20;99.90;;;;;;5020743;28;20294;-78
2021/05/18 15:24:54;;;;;;;4.80;4.60;;;16.30;99.90;;;;;;5023218;28;20203;-79
2021/05/18 15:27:20;;;;;;;4.80;4.60;;;16.40;99.90;;;;;;5040244;28;20222;-78
2021/05/18 15:29:47;;;;;;;5.00;4.70;;;16.70;99.90;;;;;;5034947;28;20203;-77
2021/05/18 15:32:22;;;;;;;5.00;4.70;;;16.80;99.90;;;;;;5016599;28;20209;-78
2021/05/18 15:34:51;;;;;;;5.10;4.80;;;16.80;99.90;;;;;;5031262;28;20218;-77
2021/05/18 15:37:21;;;;;;;5.00;4.70;;;16.70;99.90;;;;;;5014617;28;20678;-77
2021/05/18 15:39:52;;;;;;;5.00;4.60;;;16.60;99.90;;;;;;5033549;28;20204;-77
2021/05/18 15:42:19;;;;;;;4.90;4.60;;;16.40;99.90;;;;;;5033935;28;20196;-78
2021/05/18 15:44:45;;;;;;;5.30;5.00;;;16.10;99.90;;;;;;5023625;28;20592;-77
2021/05/18 15:47:11;;;;;;;5.17;4.80;;;16.00;99.90;;;;;;5015047;28;20199;-78
2021/05/18 15:49:38;;;;;;;4.70;4.50;;;16.00;99.90;;;;;;5037477;28;20196;-78
2021/05/18 15:52:05;;;;;;;5.70;5.40;;;15.90;99.90;;;;;;5031702;28;20209;-75
2021/05/18 15:54:32;;;;;;;5.30;5.00;;;15.90;99.90;;;;;;5026550;28;20228;-76
2021/05/18 15:56:59;;;;;;;5.13;4.83;;;15.90;99.90;;;;;;5007996;28;20704;-75
2021/05/18 15:59:25;;;;;;;5.57;5.17;;;15.90;99.90;;;;;;5024258;28;20216;-76
2021/05/18 16:01:52;;;;;;;5.10;4.80;;;15.90;99.90;;;;;;5006072;28;20607;-76
2021/05/18 16:04:18;;;;;;;6.00;5.70;;;15.80;99.90;;;;;;5025846;28;20197;-75
2021/05/18 16:06:44;;;;;;;5.67;5.17;;;15.70;99.90;;;;;;5025472;28;20196;-76
2021/05/18 16:09:13;;;;;;;5.93;5.63;;;15.60;99.90;;;;;;5005920;28;20205;-77
2021/05/18 16:11:41;;;;;;;5.87;5.57;;;15.60;99.90;;;;;;5022213;28;20306;-76
2021/05/18 16:14:09;;;;;;;5.93;5.63;;;15.40;99.90;;;;;;5006291;28;20208;-76
2021/05/18 16:16:36;;;;;;;5.70;5.40;;;15.30;99.90;;;;;;5006486;28;20205;-77
2021/05/18 16:19:03;;;;;;;5.90;5.50;;;15.30;99.90;;;;;;5010591;28;20259;-77
2021/05/18 16:21:30;;;;;;;6.20;5.60;;;15.30;99.90;;;;;;5009846;28;20659;-77
2021/05/18 16:23:58;;;;;;;5.93;5.60;;;15.20;99.90;;;;;;5011976;28;20204;-77
2021/05/18 16:26:26;;;;;;;5.77;5.47;;;15.20;99.90;;;;;;5010947;28;20677;-76
2021/05/18 16:28:54;;;;;;;5.60;5.30;;;15.20;99.90;;;;;;5027725;28;20201;-77
2021/05/18 16:31:22;;;;;;;5.30;5.00;;;15.20;99.90;;;;;;5030591;28;20607;-76
2021/05/18 16:33:49;;;;;;;5.60;5.30;;;15.20;99.90;;;;;;5013426;28;20199;-76
2021/05/18 16:36:16;;;;;;;5.00;4.80;;;15.20;99.90;;;;;;5030891;28;20253;-77
2021/05/18 16:38:42;;;;;;;5.00;4.80;;;15.10;99.90;;;;;;5029485;28;20204;-77
2021/05/18 16:41:12;;;;;;;5.37;4.93;;;15.00;99.90;;;;;;5028469;28;20215;-77
2021/05/18 16:43:43;;;;;;;6.10;5.80;;;15.00;99.90;;;;;;5014452;28;20200;-76
2021/05/18 16:46:10;;;;;;;5.30;5.00;;;14.90;99.90;;;;;;5008762;28;20661;-76
2021/05/18 16:48:36;;;;;;;5.50;5.20;;;14.80;99.90;;;;;;5029317;28;20253;-77
2021/05/18 16:51:04;;;;;;;5.23;4.93;;;14.80;99.90;;;;;;5028747;28;20266;-76
2021/05/18 16:53:31;;;;;;;5.13;4.73;;;14.70;99.90;;;;;;5028813;28;20200;-76
2021/05/18 16:55:59;;;;;;;5.00;4.70;;;14.60;99.90;;;;;;5013855;28;20227;-77
2021/05/18 16:58:25;;;;;;;5.13;4.90;;;14.60;99.90;;;;;;5029581;28;20203;-77
2021/05/18 17:00:53;;;;;;;4.80;4.60;;;14.50;99.90;;;;;;5010585;28;20246;-77
2021/05/18 17:03:19;;;;;;;5.10;4.80;;;14.50;99.90;;;;;;5012855;28;20685;-77
2021/05/18 17:05:46;;;;;;;5.07;4.80;;;14.50;99.90;;;;;;5014223;28;20201;-77
2021/05/18 17:08:13;;;;;;;5.10;4.80;;;14.50;99.90;;;;;;5012063;28;20204;-78
2021/05/18 17:10:40;;;;;;;4.80;4.60;;;14.40;99.90;;;;;;5027160;28;20227;-77